createdAt,value
2018-05-15T00:01:38.946Z,17.60
2018-05-15T00:04:06.519Z,17.10
2018-05-15T00:06:34.100Z,18.20
2018-05-15T00:09:01.661Z,17.27
2018-05-15T00:11:29.241Z,16.20
2018-05-15T00:13:56.803Z,16.93
2018-05-15T00:16:24.396Z,20.97
2018-05-15T00:18:52.717Z,19.50
2018-05-15T00:21:20.297Z,21.40
2018-05-15T00:23:47.857Z,21.67
2018-05-15T00:26:15.447Z,19.37
2018-05-15T00:28:43.773Z,21.77
2018-05-15T00:31:11.359Z,21.30
2018-05-15T00:33:38.913Z,19.20
2018-05-15T00:36:06.498Z,18.00
2018-05-15T00:38:34.838Z,16.83
2018-05-15T00:41:03.200Z,17.40
2018-05-15T00:43:30.757Z,16.47
2018-05-15T00:45:58.337Z,22.63
2018-05-15T00:48:25.893Z,23.17
2018-05-15T00:50:54.242Z,22.70
2018-05-15T00:53:21.799Z,16.70
2018-05-15T00:55:49.361Z,18.70
2018-05-15T00:58:16.949Z,18.70
2018-05-15T01:00:44.509Z,20.87
2018-05-15T01:03:12.093Z,18.63
2018-05-15T01:05:39.654Z,30.90
2018-05-15T01:08:07.237Z,17.17
2018-05-15T01:10:35.568Z,21.23
2018-05-15T01:13:03.290Z,17.13
2018-05-15T01:15:30.854Z,15.77
2018-05-15T01:17:58.438Z,19.90
2018-05-15T01:20:25.994Z,18.27
2018-05-15T01:22:53.784Z,17.67
2018-05-15T01:25:21.346Z,18.93
2018-05-15T01:27:48.931Z,21.30
2018-05-15T01:30:16.491Z,19.63
2018-05-15T01:32:44.846Z,19.17
2018-05-15T01:35:12.402Z,18.40
2018-05-15T01:37:39.984Z,22.80
2018-05-15T01:40:08.310Z,22.57
2018-05-15T01:42:35.890Z,20.37
2018-05-15T01:45:03.445Z,20.57
2018-05-15T01:47:31.026Z,19.23
2018-05-15T01:49:58.581Z,19.77
2018-05-15T01:52:26.163Z,20.37
2018-05-15T01:54:54.482Z,21.37
2018-05-15T01:57:22.068Z,22.97
2018-05-15T01:59:49.626Z,23.87
2018-05-15T02:02:17.202Z,22.77
2018-05-15T02:04:45.529Z,21.27
2018-05-15T02:07:13.109Z,22.57
2018-05-15T02:09:40.669Z,23.47
2018-05-15T02:12:08.249Z,22.60
2018-05-15T02:14:35.805Z,22.17
2018-05-15T02:17:03.386Z,22.00
2018-05-15T02:19:31.709Z,20.40
2018-05-15T02:21:59.300Z,21.67
2018-05-15T02:24:26.863Z,20.93
2018-05-15T02:26:55.186Z,21.23
2018-05-15T02:29:22.777Z,22.37
2018-05-15T02:31:50.338Z,22.90
2018-05-15T02:34:17.916Z,21.37
2018-05-15T02:36:45.479Z,23.83
2018-05-15T02:39:13.825Z,24.70
2018-05-15T02:41:41.387Z,25.83
2018-05-15T02:44:08.971Z,25.67
2018-05-15T02:46:37.301Z,23.90
2018-05-15T02:49:04.883Z,25.07
2018-05-15T02:51:32.441Z,24.10
2018-05-15T02:54:00.054Z,23.90
2018-05-15T02:56:27.616Z,24.73
2018-05-15T02:58:55.193Z,24.30
2018-05-15T03:01:22.750Z,26.63
2018-05-15T03:03:50.332Z,27.07
2018-05-15T03:06:17.890Z,26.40
2018-05-15T03:08:45.470Z,25.67
2018-05-15T03:11:13.041Z,26.10
2018-05-15T03:13:41.394Z,27.20
2018-05-15T03:16:08.954Z,27.30
2018-05-15T03:18:36.537Z,25.50
2018-05-15T03:21:04.859Z,27.40
2018-05-15T03:23:32.447Z,27.77
2018-05-15T03:26:00.007Z,27.97
2018-05-15T03:28:27.594Z,27.63
2018-05-15T03:30:55.913Z,28.13
2018-05-15T03:33:23.493Z,27.37
2018-05-15T03:35:51.101Z,27.70
2018-05-15T03:38:18.678Z,28.27
2018-05-15T03:40:46.237Z,26.00
2018-05-15T03:43:13.822Z,29.47
2018-05-15T03:45:41.381Z,30.50
2018-05-15T03:48:08.965Z,29.53
2018-05-15T03:50:36.526Z,29.07
2018-05-15T03:53:04.109Z,30.90
2018-05-15T03:55:31.665Z,30.93
2018-05-15T03:57:59.261Z,29.20
2018-05-15T04:00:38.629Z,32.60
2018-05-15T04:03:17.946Z,29.30
2018-05-15T04:05:57.267Z,31.40
2018-05-15T04:08:25.029Z,31.40
2018-05-15T04:10:52.607Z,30.97
2018-05-15T04:13:20.192Z,31.53
2018-05-15T04:15:47.758Z,31.40
2018-05-15T04:18:15.346Z,32.63
2018-05-15T04:20:42.933Z,32.63
2018-05-15T04:23:11.262Z,36.23
2018-05-15T04:25:39.614Z,35.27
2018-05-15T04:28:07.273Z,33.60
2018-05-15T04:30:34.773Z,35.27
2018-05-15T04:33:02.332Z,34.20
2018-05-15T04:35:29.915Z,35.20
2018-05-15T04:37:57.473Z,37.20
2018-05-15T04:40:25.057Z,35.70
2018-05-15T04:42:52.633Z,35.47
2018-05-15T04:45:20.212Z,35.27
2018-05-15T04:47:48.538Z,36.70
2018-05-15T04:50:16.120Z,35.40
2018-05-15T04:52:43.851Z,35.10
2018-05-15T04:55:11.461Z,34.87
2018-05-15T04:57:39.023Z,39.37
2018-05-15T05:00:07.373Z,34.47
2018-05-15T05:02:34.938Z,33.57
2018-05-15T05:05:02.513Z,36.73
2018-05-15T05:07:30.074Z,35.80
2018-05-15T05:09:57.659Z,35.83
2018-05-15T05:12:25.222Z,35.00
2018-05-15T05:14:52.952Z,35.40
2018-05-15T05:17:20.509Z,36.53
2018-05-15T05:19:48.102Z,33.40
2018-05-15T05:22:15.659Z,37.03
2018-05-15T05:24:43.269Z,31.53
2018-05-15T05:27:10.892Z,33.07
2018-05-15T05:29:38.461Z,34.27
2018-05-15T05:32:06.018Z,34.17
2018-05-15T05:34:33.604Z,36.47
2018-05-15T05:37:01.162Z,35.90
2018-05-15T05:39:28.752Z,35.63
2018-05-15T05:41:56.309Z,34.70
2018-05-15T05:44:24.661Z,34.37
2018-05-15T05:46:52.215Z,32.90
2018-05-15T05:49:19.774Z,32.17
2018-05-15T05:51:47.358Z,31.20
2018-05-15T05:54:14.919Z,32.40
2018-05-15T05:56:42.501Z,32.23
2018-05-15T05:59:10.071Z,31.90
2018-05-15T06:01:37.654Z,28.40
2018-05-15T06:04:05.216Z,31.43
2018-05-15T06:06:32.799Z,30.10
2018-05-15T06:09:00.357Z,34.20
2018-05-15T06:11:27.933Z,30.57
2018-05-15T06:13:56.273Z,35.03
2018-05-15T06:16:23.861Z,35.80
2018-05-15T06:18:51.433Z,31.77
2018-05-15T06:21:19.017Z,31.30
2018-05-15T06:23:46.577Z,31.30
2018-05-15T06:26:14.159Z,33.43
2018-05-15T06:28:41.716Z,30.90
2018-05-15T06:31:09.293Z,31.17
2018-05-15T06:33:37.622Z,35.00
2018-05-15T06:36:05.204Z,31.10
2018-05-15T06:38:32.801Z,29.90
2018-05-15T06:41:00.374Z,23.33
2018-05-15T06:43:27.933Z,23.33
2018-05-15T06:45:55.520Z,21.67
2018-05-15T06:48:23.085Z,20.90
2018-05-15T06:50:50.677Z,21.30
2018-05-15T06:53:18.243Z,21.27
2018-05-15T06:55:46.602Z,20.90
2018-05-15T06:58:14.160Z,20.47
2018-05-15T07:00:41.742Z,21.73
2018-05-15T07:03:09.301Z,21.20
2018-05-15T07:05:37.630Z,20.77
2018-05-15T07:08:05.214Z,19.20
2018-05-15T07:10:32.770Z,17.93
2018-05-15T07:13:00.350Z,18.97
2018-05-15T07:15:27.909Z,17.07
2018-05-15T07:17:55.497Z,18.87
2018-05-15T07:20:24.019Z,20.60
2018-05-15T07:22:51.613Z,18.80
2018-05-15T07:25:19.169Z,17.97
2018-05-15T07:27:46.807Z,18.70
2018-05-15T07:30:14.371Z,19.10
2018-05-15T07:32:41.963Z,19.00
2018-05-15T07:35:09.525Z,17.47
2018-05-15T07:37:37.106Z,18.87
2018-05-15T07:40:05.438Z,17.53
2018-05-15T07:42:33.792Z,17.97
2018-05-15T07:45:01.909Z,19.07
2018-05-15T07:47:29.758Z,17.10
2018-05-15T07:49:57.333Z,18.87
2018-05-15T07:52:24.949Z,19.43
2018-05-15T07:54:52.501Z,17.47
2018-05-15T07:57:20.089Z,18.43
2018-05-15T07:59:47.645Z,17.47
2018-05-15T08:02:15.225Z,17.93
2018-05-15T08:04:42.782Z,18.10
2018-05-15T08:07:10.369Z,16.93
2018-05-15T08:09:38.700Z,17.40
2018-05-15T08:12:06.277Z,18.73
2018-05-15T08:14:33.874Z,15.33
2018-05-15T08:17:01.463Z,16.57
2018-05-15T08:19:29.020Z,15.43
2018-05-15T08:21:56.597Z,14.27
2018-05-15T08:24:24.154Z,16.23
2018-05-15T08:26:51.737Z,14.80
2018-05-15T08:29:19.305Z,15.70
2018-05-15T08:31:46.895Z,16.27
2018-05-15T08:34:14.459Z,14.50
2018-05-15T08:36:42.054Z,16.43
2018-05-15T08:39:09.617Z,15.50
2018-05-15T08:41:37.172Z,15.07
2018-05-15T08:44:04.762Z,14.47
2018-05-15T08:46:32.325Z,13.23
2018-05-15T08:49:01.650Z,13.40
2018-05-15T08:51:29.224Z,13.27
2018-05-15T08:53:56.993Z,13.03
2018-05-15T08:56:24.756Z,13.60
2018-05-15T08:58:52.333Z,13.17
2018-05-15T09:01:19.897Z,12.57
2018-05-15T09:03:47.481Z,12.10
2018-05-15T09:06:15.072Z,11.30
2018-05-15T09:08:42.652Z,12.03
2018-05-15T09:11:10.341Z,12.10
2018-05-15T09:13:37.925Z,12.13
2018-05-15T09:16:05.482Z,11.97
2018-05-15T09:18:33.065Z,12.17
2018-05-15T09:21:00.627Z,10.30
2018-05-15T09:23:28.205Z,11.10
2018-05-15T09:25:55.931Z,10.73
2018-05-15T09:28:23.514Z,11.67
2018-05-15T09:30:51.114Z,10.20
2018-05-15T09:33:18.698Z,11.10
2018-05-15T09:35:46.257Z,11.00
2018-05-15T09:38:13.832Z,10.07
2018-05-15T09:40:41.396Z,10.10
2018-05-15T09:43:09.745Z,9.20
2018-05-15T09:45:37.347Z,11.00
2018-05-15T09:48:04.929Z,11.97
2018-05-15T09:50:32.486Z,10.43
2018-05-15T09:53:00.066Z,9.47
2018-05-15T09:55:28.386Z,9.00
2018-05-15T09:57:56.734Z,8.90
2018-05-15T10:00:29.988Z,9.40
2018-05-15T10:02:57.568Z,8.50
2018-05-15T10:05:25.128Z,7.50
2018-05-15T10:07:52.803Z,8.07
2018-05-15T10:10:20.284Z,8.70
2018-05-15T10:12:47.869Z,7.87
2018-05-15T10:15:15.430Z,7.60
2018-05-15T10:17:43.013Z,9.13
2018-05-15T10:20:10.570Z,8.27
2018-05-15T10:22:38.135Z,7.33
2018-05-15T10:25:06.478Z,8.13
2018-05-15T10:27:34.034Z,8.20
2018-05-15T10:30:01.697Z,7.97
2018-05-15T10:32:30.016Z,8.70
2018-05-15T10:34:57.604Z,8.90
2018-05-15T10:37:25.165Z,7.87
2018-05-15T10:39:53.509Z,8.37
2018-05-15T10:42:21.061Z,7.77
2018-05-15T10:44:48.645Z,8.70
2018-05-15T10:47:16.207Z,6.87
2018-05-15T10:49:43.789Z,7.03
2018-05-15T10:52:12.115Z,7.90
2018-05-15T10:54:39.703Z,7.20
2018-05-15T10:57:07.858Z,7.07
2018-05-15T10:59:35.565Z,6.90
2018-05-15T11:02:03.078Z,6.97
2018-05-15T11:04:30.656Z,6.87
2018-05-15T11:06:58.214Z,7.00
2018-05-15T11:09:25.795Z,6.80
2018-05-15T11:11:54.117Z,7.00
2018-05-15T11:14:21.694Z,7.90
2018-05-15T11:16:49.285Z,7.13
2018-05-15T11:19:28.697Z,7.07
2018-05-15T11:22:08.016Z,6.10
2018-05-15T11:24:50.478Z,5.23
2018-05-15T11:27:18.809Z,6.47
2018-05-15T11:29:46.389Z,6.93
2018-05-15T11:32:13.950Z,7.13
2018-05-15T11:34:41.532Z,6.63
2018-05-15T11:37:09.089Z,6.00
2018-05-15T11:39:37.449Z,6.63
2018-05-15T11:42:05.013Z,6.80
2018-05-15T11:44:32.594Z,7.70
2018-05-15T11:47:00.153Z,8.17
2018-05-15T11:49:28.369Z,6.67
2018-05-15T11:51:56.158Z,6.13
2018-05-15T11:54:22.909Z,6.07
2018-05-15T11:56:50.459Z,6.80
2018-05-15T11:59:18.810Z,5.93
2018-05-15T12:01:46.373Z,6.80
2018-05-15T12:04:13.955Z,6.10
2018-05-15T12:06:41.517Z,7.40
2018-05-15T12:09:09.969Z,7.20
2018-05-15T12:11:38.226Z,7.93
2018-05-15T12:14:05.781Z,7.73
2018-05-15T12:16:33.362Z,7.20
2018-05-15T12:19:00.913Z,8.03
2018-05-15T12:21:28.489Z,7.73
2018-05-15T12:23:56.043Z,8.07
2018-05-15T12:26:23.620Z,6.90
2018-05-15T12:28:51.178Z,7.23
2018-05-15T12:31:18.760Z,7.20
2018-05-15T12:33:46.326Z,7.30
2018-05-15T12:36:13.905Z,6.50
2018-05-15T12:38:41.451Z,6.53
2018-05-15T12:41:09.080Z,6.10
2018-05-15T12:43:36.607Z,5.97
2018-05-15T12:46:04.203Z,5.50
2018-05-15T12:48:32.556Z,6.53
2018-05-15T12:51:00.121Z,9.00
2018-05-15T12:53:27.678Z,8.50
2018-05-15T12:55:55.255Z,8.30
2018-05-15T12:58:23.574Z,8.10
2018-05-15T13:00:51.154Z,8.00
2018-05-15T13:03:18.718Z,7.73
2018-05-15T13:05:46.302Z,7.80
2018-05-15T13:08:13.861Z,6.47
2018-05-15T13:10:41.443Z,6.50
2018-05-15T13:13:08.997Z,5.77
2018-05-15T13:15:37.347Z,6.97
2018-05-15T13:18:04.904Z,5.20
2018-05-15T13:20:32.485Z,4.80
2018-05-15T13:23:00.042Z,5.10
2018-05-15T13:25:28.398Z,4.33
2018-05-15T13:27:55.954Z,4.23
2018-05-15T13:30:23.516Z,4.70
2018-05-15T13:32:51.098Z,4.43
2018-05-15T13:35:19.509Z,4.87
2018-05-15T13:37:47.021Z,3.50
2018-05-15T13:40:14.581Z,3.73
2018-05-15T13:42:42.172Z,3.73
2018-05-15T13:45:09.726Z,4.10
2018-05-15T13:47:37.305Z,3.70
2018-05-15T13:50:04.866Z,4.07
2018-05-15T13:52:32.443Z,3.60
2018-05-15T13:54:59.994Z,3.63
2018-05-15T13:57:27.571Z,4.03
2018-05-15T13:59:55.130Z,3.70
2018-05-15T14:02:22.711Z,3.40
2018-05-15T14:04:50.271Z,4.00
2018-05-15T14:07:17.849Z,3.10
2018-05-15T14:09:45.407Z,3.00
2018-05-15T14:12:13.753Z,3.10
2018-05-15T14:14:41.306Z,3.10
2018-05-15T14:17:08.881Z,2.40
2018-05-15T14:19:36.441Z,2.80
2018-05-15T14:22:04.789Z,4.10
2018-05-15T14:24:32.349Z,2.90
2018-05-15T14:26:59.935Z,3.03
2018-05-15T14:29:27.522Z,3.40
2018-05-15T14:31:55.099Z,3.30
2018-05-15T14:34:22.655Z,3.37
2018-05-15T14:36:50.233Z,3.03
2018-05-15T14:39:17.798Z,3.10
2018-05-15T14:41:57.208Z,2.73
2018-05-15T14:44:24.762Z,2.67
2018-05-15T14:46:52.349Z,3.33
2018-05-15T14:49:19.906Z,2.93
2018-05-15T14:51:47.492Z,3.57
2018-05-15T14:54:15.041Z,3.07
2018-05-15T14:56:42.591Z,3.70
2018-05-15T14:59:10.173Z,3.10
2018-05-15T15:01:37.728Z,3.50
2018-05-15T15:04:05.321Z,3.17
2018-05-15T15:06:32.890Z,3.20
2018-05-15T15:09:00.465Z,2.90
2018-05-15T15:11:28.025Z,3.67
2018-05-15T15:13:55.604Z,2.93
2018-05-15T15:16:23.160Z,3.50
2018-05-15T15:18:51.505Z,2.70
2018-05-15T15:21:19.072Z,2.90
2018-05-15T15:23:46.677Z,2.97
2018-05-15T15:26:14.233Z,2.77
2018-05-15T15:28:41.805Z,2.40
2018-05-15T15:31:09.358Z,3.67
2018-05-15T15:33:36.963Z,3.03
2018-05-15T15:36:04.518Z,3.20
2018-05-15T15:38:32.108Z,3.40
2018-05-15T15:40:59.671Z,3.60
2018-05-15T15:43:27.254Z,2.80
2018-05-15T15:45:54.815Z,3.10
2018-05-15T15:48:22.394Z,3.57
2018-05-15T15:50:51.506Z,3.70
2018-05-15T15:53:19.183Z,2.90
2018-05-15T15:55:46.783Z,3.50
2018-05-15T15:58:14.331Z,2.80
2018-05-15T16:00:41.878Z,3.50
2018-05-15T16:03:09.449Z,3.10
2018-05-15T16:05:37.769Z,3.37
2018-05-15T16:08:05.352Z,3.27
2018-05-15T16:10:32.924Z,3.80
2018-05-15T16:13:00.505Z,3.40
2018-05-15T16:15:28.062Z,3.87
2018-05-15T16:17:55.652Z,3.73
2018-05-15T16:20:23.205Z,4.60
2018-05-15T16:22:50.808Z,3.50
2018-05-15T16:25:19.116Z,3.50
2018-05-15T16:27:46.670Z,3.70
2018-05-15T16:30:14.252Z,3.03
2018-05-15T16:32:41.807Z,3.40
2018-05-15T16:35:09.388Z,3.10
2018-05-15T16:37:37.801Z,3.13
2018-05-15T16:40:05.308Z,3.17
2018-05-15T16:42:32.862Z,3.27
2018-05-15T16:45:00.438Z,2.80
2018-05-15T16:47:28.849Z,2.80
2018-05-15T16:49:56.362Z,2.50
2018-05-15T16:52:23.922Z,2.80
2018-05-15T16:54:51.507Z,2.83
2018-05-15T16:57:19.074Z,3.20
2018-05-15T16:59:46.652Z,3.50
2018-05-15T17:02:14.208Z,3.93
2018-05-15T17:04:41.789Z,3.57
2018-05-15T17:07:09.338Z,3.90
2018-05-15T17:09:36.926Z,4.03
2018-05-15T17:12:05.194Z,2.77
2018-05-15T17:14:32.881Z,4.00
2018-05-15T17:17:01.210Z,3.93
2018-05-15T17:19:28.837Z,2.80
2018-05-15T17:21:56.393Z,3.27
2018-05-15T17:24:23.971Z,3.97
2018-05-15T17:26:51.526Z,3.50
2018-05-15T17:29:19.118Z,3.47
2018-05-15T17:31:46.669Z,3.30
2018-05-15T17:34:14.257Z,3.60
2018-05-15T17:36:41.906Z,3.60
2018-05-15T17:39:09.485Z,3.87
2018-05-15T17:41:37.045Z,3.47
2018-05-15T17:44:05.488Z,3.20
2018-05-15T17:46:33.046Z,3.77
2018-05-15T17:49:00.626Z,3.60
2018-05-15T17:51:28.179Z,3.70
2018-05-15T17:53:55.754Z,3.53
2018-05-15T17:56:23.338Z,3.97
2018-05-15T17:58:52.458Z,3.43
2018-05-15T18:01:20.043Z,3.50
2018-05-15T18:03:47.641Z,3.60
2018-05-15T18:06:15.222Z,3.40
2018-05-15T18:08:42.787Z,3.43
2018-05-15T18:11:10.387Z,3.57
2018-05-15T18:13:38.030Z,3.40
2018-05-15T18:16:06.195Z,3.20
2018-05-15T18:18:33.878Z,3.63
2018-05-15T18:21:02.250Z,3.33
2018-05-15T18:23:29.827Z,3.37
2018-05-15T18:25:57.586Z,2.97
2018-05-15T18:28:25.142Z,2.73
2018-05-15T18:30:54.345Z,3.37
2018-05-15T18:33:21.898Z,3.60
2018-05-15T18:35:49.480Z,3.70
2018-05-15T18:38:17.801Z,4.00
2018-05-15T18:40:45.377Z,3.60
2018-05-15T18:43:12.926Z,4.27
2018-05-15T18:45:40.503Z,4.03
2018-05-15T18:48:08.057Z,3.70
2018-05-15T18:50:35.644Z,3.87
2018-05-15T18:53:03.202Z,5.03
2018-05-15T18:55:30.787Z,4.30
2018-05-15T18:57:58.350Z,4.00
2018-05-15T19:00:25.936Z,4.13
2018-05-15T19:02:53.497Z,4.30
2018-05-15T19:05:21.074Z,4.60
2018-05-15T19:07:48.672Z,3.87
2018-05-15T19:10:16.258Z,4.67
2018-05-15T19:12:43.879Z,4.27
2018-05-15T19:15:11.413Z,5.40
2018-05-15T19:17:38.961Z,4.90
2018-05-15T19:20:06.537Z,5.00
2018-05-15T19:22:34.089Z,5.20
2018-05-15T19:25:01.669Z,4.30
2018-05-15T19:27:29.246Z,3.97
2018-05-15T19:29:56.829Z,4.53
2018-05-15T19:32:29.946Z,4.53
2018-05-15T19:34:58.310Z,3.77
2018-05-15T19:37:25.868Z,5.20
2018-05-15T19:39:53.428Z,5.00
2018-05-15T19:42:20.998Z,4.30
2018-05-15T19:44:49.326Z,4.50
2018-05-15T19:47:16.916Z,4.23
2018-05-15T19:49:44.461Z,4.30
2018-05-15T19:52:12.045Z,4.57
2018-05-15T19:54:39.727Z,4.80
2018-05-15T19:57:07.309Z,5.10
2018-05-15T19:59:34.893Z,4.30
2018-05-15T20:02:03.232Z,4.33
2018-05-15T20:04:30.787Z,5.40
2018-05-15T20:06:58.369Z,4.60
2018-05-15T20:09:25.931Z,4.47
2018-05-15T20:11:54.273Z,5.50
2018-05-15T20:14:21.856Z,5.00
2018-05-15T20:16:49.425Z,4.70
2018-05-15T20:19:16.980Z,5.10
2018-05-15T20:21:45.329Z,6.00
2018-05-15T20:24:12.880Z,4.87
2018-05-15T20:26:40.464Z,4.57
2018-05-15T20:29:08.026Z,5.40
2018-05-15T20:31:36.383Z,5.10
2018-05-15T20:34:03.950Z,4.83
2018-05-15T20:36:31.680Z,5.00
2018-05-15T20:38:59.245Z,4.20
2018-05-15T20:41:26.813Z,4.40
2018-05-15T20:43:54.378Z,10.13
2018-05-15T20:46:21.997Z,8.00
2018-05-15T20:48:49.554Z,4.40
2018-05-15T20:51:17.129Z,5.73
2018-05-15T20:53:44.688Z,5.00
2018-05-15T20:56:12.267Z,5.30
2018-05-15T20:58:39.815Z,5.73
2018-05-15T21:01:07.369Z,5.43
2018-05-15T21:03:34.945Z,5.30
2018-05-15T21:06:02.544Z,9.40
2018-05-15T21:08:30.891Z,6.60
2018-05-15T21:10:59.213Z,9.07
2018-05-15T21:13:26.785Z,5.83
2018-05-15T21:15:54.345Z,10.53
2018-05-15T21:18:22.125Z,7.50
2018-05-15T21:20:49.688Z,5.67
2018-05-15T21:23:17.273Z,15.73
2018-05-15T21:25:44.825Z,6.80
2018-05-15T21:28:12.412Z,5.67
2018-05-15T21:30:39.970Z,4.93
2018-05-15T21:33:07.550Z,5.10
2018-05-15T21:35:35.105Z,4.93
2018-05-15T21:38:02.696Z,5.63
2018-05-15T21:40:30.249Z,5.33
2018-05-15T21:42:57.829Z,5.30
2018-05-15T21:45:25.381Z,5.47
2018-05-15T21:47:52.954Z,5.30
2018-05-15T21:50:20.514Z,6.60
2018-05-15T21:52:48.199Z,5.63
2018-05-15T21:55:15.665Z,5.30
2018-05-15T21:57:44.017Z,5.80
2018-05-15T22:00:11.569Z,5.70
2018-05-15T22:02:39.141Z,5.60
2018-05-15T22:05:06.692Z,5.80
2018-05-15T22:07:34.270Z,5.57
2018-05-15T22:10:01.840Z,5.33
2018-05-15T22:12:41.415Z,5.20
2018-05-15T22:15:20.597Z,5.90
2018-05-15T22:17:59.864Z,5.87
2018-05-15T22:20:39.186Z,6.50
2018-05-15T22:23:06.241Z,5.73
2018-05-15T22:25:33.797Z,5.77
2018-05-15T22:28:02.145Z,6.40
2018-05-15T22:30:29.702Z,6.50
2018-05-15T22:32:57.282Z,5.67
2018-05-15T22:35:24.835Z,6.87
2018-05-15T22:37:53.190Z,8.73
2018-05-15T22:40:20.784Z,13.10
2018-05-15T22:42:48.376Z,6.90
2018-05-15T22:45:15.949Z,6.47
2018-05-15T22:47:43.501Z,9.40
2018-05-15T22:50:11.076Z,5.57
2018-05-15T22:52:38.638Z,5.57
2018-05-15T22:55:06.253Z,6.40
2018-05-15T22:57:33.804Z,6.80
2018-05-15T23:00:01.377Z,5.83
2018-05-15T23:02:28.945Z,7.47
2018-05-15T23:04:56.517Z,6.33
2018-05-15T23:07:24.081Z,6.60
2018-05-15T23:09:51.664Z,6.77
2018-05-15T23:12:19.327Z,7.23
2018-05-15T23:14:46.901Z,6.20
2018-05-15T23:17:15.214Z,6.40
2018-05-15T23:19:42.789Z,7.70
2018-05-15T23:22:10.346Z,6.73
2018-05-15T23:24:37.926Z,6.00
2018-05-15T23:27:05.485Z,6.50
2018-05-15T23:29:33.114Z,6.23
2018-05-15T23:32:00.653Z,7.13
2018-05-15T23:34:28.233Z,7.73
2018-05-15T23:36:55.788Z,6.50
2018-05-15T23:39:23.361Z,7.40
2018-05-15T23:41:50.985Z,7.27
2018-05-15T23:44:18.562Z,6.47
2018-05-15T23:46:46.111Z,5.70
2018-05-15T23:49:13.688Z,7.30
2018-05-15T23:51:41.250Z,7.13
2018-05-15T23:54:08.842Z,6.83
2018-05-15T23:56:36.419Z,7.00
2018-05-15T23:59:04.770Z,6.77
